sensor_id;sensor_type;location;lat;lon;timestamp;P1;durP1;ratioP1;P2;durP2;ratioP2
1991;SDS011;997;48.448;8.924;2022-07-17T03:02:22;4.03;;;3.57;;
1991;SDS011;997;48.448;8.924;2022-07-17T03:04:48;4.80;;;4.37;;
1991;SDS011;997;48.448;8.924;2022-07-17T03:07:13;4.70;;;4.30;;
1991;SDS011;997;48.448;8.924;2022-07-17T03:09:40;4.13;;;3.73;;
1991;SDS011;997;48.448;8.924;2022-07-17T03:12:06;4.17;;;3.87;;
1991;SDS011;997;48.448;8.924;2022-07-17T03:14:32;4.90;;;3.90;;
1991;SDS011;997;48.448;8.924;2022-07-17T03:16:57;4.70;;;4.30;;
1991;SDS011;997;48.448;8.924;2022-07-17T03:19:23;3.60;;;3.40;;
1991;SDS011;997;48.448;8.924;2022-07-17T03:21:49;9.50;;;4.23;;
1991;SDS011;997;48.448;8.924;2022-07-17T03:24:15;3.97;;;3.70;;
1991;SDS011;997;48.448;8.924;2022-07-17T03:26:41;5.27;;;4.77;;
1991;SDS011;997;48.448;8.924;2022-07-17T03:29:07;4.50;;;4.10;;
1991;SDS011;997;48.448;8.924;2022-07-17T03:31:34;4.10;;;3.80;;
1991;SDS011;997;48.448;8.924;2022-07-17T03:34:00;3.90;;;3.70;;
1991;SDS011;997;48.448;8.924;2022-07-17T03:36:25;6.63;;;4.40;;
1991;SDS011;997;48.448;8.924;2022-07-17T03:38:52;4.60;;;4.20;;
1991;SDS011;997;48.448;8.924;2022-07-17T03:41:18;5.03;;;4.63;;
1991;SDS011;997;48.448;8.924;2022-07-17T03:43:44;4.30;;;3.90;;
1991;SDS011;997;48.448;8.924;2022-07-17T03:46:10;4.20;;;3.90;;
1991;SDS011;997;48.448;8.924;2022-07-17T03:48:36;4.20;;;3.80;;
1991;SDS011;997;48.448;8.924;2022-07-17T03:51:03;4.33;;;4.03;;
1991;SDS011;997;48.448;8.924;2022-07-17T03:53:29;3.93;;;3.63;;
1991;SDS011;997;48.448;8.924;2022-07-17T03:55:55;4.30;;;4.00;;
1991;SDS011;997;48.448;8.924;2022-07-17T03:58:21;4.80;;;4.40;;
1991;SDS011;997;48.448;8.924;2022-07-17T04:00:47;5.13;;;4.10;;
1991;SDS011;997;48.448;8.924;2022-07-17T04:03:13;4.37;;;3.97;;
1991;SDS011;997;48.448;8.924;2022-07-17T04:05:38;4.07;;;3.77;;
1991;SDS011;997;48.448;8.924;2022-07-17T04:08:04;6.60;;;4.57;;
1991;SDS011;997;48.448;8.924;2022-07-17T04:10:30;5.93;;;4.70;;
1991;SDS011;997;48.448;8.924;2022-07-17T04:12:57;4.20;;;3.90;;
1991;SDS011;997;48.448;8.924;2022-07-17T04:15:23;4.20;;;3.90;;
1991;SDS011;997;48.448;8.924;2022-07-17T04:18:07;4.43;;;4.03;;
1991;SDS011;997;48.448;8.924;2022-07-17T04:20:33;4.20;;;3.90;;
1991;SDS011;997;48.448;8.924;2022-07-17T04:22:59;4.40;;;3.70;;
1991;SDS011;997;48.448;8.924;2022-07-17T04:25:25;4.40;;;4.00;;
1991;SDS011;997;48.448;8.924;2022-07-17T04:27:51;4.47;;;3.90;;
1991;SDS011;997;48.448;8.924;2022-07-17T04:30:17;5.00;;;4.60;;
1991;SDS011;997;48.448;8.924;2022-07-17T04:32:43;4.13;;;3.83;;
1991;SDS011;997;48.448;8.924;2022-07-17T04:35:09;4.33;;;3.93;;
1991;SDS011;997;48.448;8.924;2022-07-17T04:37:34;4.30;;;3.90;;
1991;SDS011;997;48.448;8.924;2022-07-17T04:40:01;4.60;;;4.20;;
1991;SDS011;997;48.448;8.924;2022-07-17T04:42:28;4.27;;;3.97;;
1991;SDS011;997;48.448;8.924;2022-07-17T04:44:54;4.47;;;4.17;;
1991;SDS011;997;48.448;8.924;2022-07-17T04:47:19;4.40;;;4.10;;
1991;SDS011;997;48.448;8.924;2022-07-17T04:49:45;4.40;;;4.00;;
1991;SDS011;997;48.448;8.924;2022-07-17T04:52:12;4.10;;;3.80;;
1991;SDS011;997;48.448;8.924;2022-07-17T04:54:37;5.00;;;4.70;;
1991;SDS011;997;48.448;8.924;2022-07-17T04:57:03;6.70;;;4.33;;
1991;SDS011;997;48.448;8.924;2022-07-17T04:59:29;4.63;;;4.23;;
1991;SDS011;997;48.448;8.924;2022-07-17T05:01:55;4.27;;;3.97;;
1991;SDS011;997;48.448;8.924;2022-07-17T05:04:21;4.80;;;4.43;;
1991;SDS011;997;48.448;8.924;2022-07-17T05:06:47;5.70;;;5.20;;
1991;SDS011;997;48.448;8.924;2022-07-17T05:09:13;5.50;;;4.80;;
1991;SDS011;997;48.448;8.924;2022-07-17T05:11:39;4.10;;;3.70;;
1991;SDS011;997;48.448;8.924;2022-07-17T05:14:05;4.60;;;4.30;;
1991;SDS011;997;48.448;8.924;2022-07-17T05:16:31;4.13;;;3.83;;
1991;SDS011;997;48.448;8.924;2022-07-17T05:18:57;4.97;;;4.53;;
1991;SDS011;997;48.448;8.924;2022-07-17T05:21:24;5.57;;;5.10;;
1991;SDS011;997;48.448;8.924;2022-07-17T05:23:49;5.27;;;4.77;;
1991;SDS011;997;48.448;8.924;2022-07-17T05:26:15;4.67;;;4.27;;
1991;SDS011;997;48.448;8.924;2022-07-17T05:28:41;4.57;;;4.27;;
1991;SDS011;997;48.448;8.924;2022-07-17T05:31:07;4.40;;;4.10;;
1991;SDS011;997;48.448;8.924;2022-07-17T05:33:33;5.33;;;4.13;;
1991;SDS011;997;48.448;8.924;2022-07-17T05:35:59;5.20;;;4.80;;
1991;SDS011;997;48.448;8.924;2022-07-17T05:38:25;4.53;;;3.90;;
1991;SDS011;997;48.448;8.924;2022-07-17T05:40:51;6.00;;;4.80;;
1991;SDS011;997;48.448;8.924;2022-07-17T05:43:16;4.90;;;4.40;;
1991;SDS011;997;48.448;8.924;2022-07-17T05:45:42;8.20;;;5.40;;
1991;SDS011;997;48.448;8.924;2022-07-17T05:48:08;4.57;;;4.27;;
1991;SDS011;997;48.448;8.924;2022-07-17T05:50:34;4.90;;;4.57;;
1991;SDS011;997;48.448;8.924;2022-07-17T05:53:00;5.07;;;4.67;;
1991;SDS011;997;48.448;8.924;2022-07-17T05:55:26;5.10;;;4.60;;
1991;SDS011;997;48.448;8.924;2022-07-17T05:57:51;4.60;;;4.30;;
1991;SDS011;997;48.448;8.924;2022-07-17T06:00:17;5.37;;;4.97;;
1991;SDS011;997;48.448;8.924;2022-07-17T06:02:43;5.67;;;4.50;;
1991;SDS011;997;48.448;8.924;2022-07-17T06:05:09;5.13;;;4.73;;
1991;SDS011;997;48.448;8.924;2022-07-17T06:07:36;5.30;;;4.80;;
1991;SDS011;997;48.448;8.924;2022-07-17T06:10:05;5.20;;;4.23;;
1991;SDS011;997;48.448;8.924;2022-07-17T06:12:32;5.10;;;4.60;;
1991;SDS011;997;48.448;8.924;2022-07-17T06:14:58;4.43;;;3.90;;
1991;SDS011;997;48.448;8.924;2022-07-17T06:17:24;5.90;;;4.30;;
1991;SDS011;997;48.448;8.924;2022-07-17T06:19:50;5.07;;;4.63;;
1991;SDS011;997;48.448;8.924;2022-07-17T06:22:20;6.00;;;5.37;;
1991;SDS011;997;48.448;8.924;2022-07-17T06:24:46;6.50;;;5.80;;
1991;SDS011;997;48.448;8.924;2022-07-17T06:27:13;4.30;;;4.00;;
1991;SDS011;997;48.448;8.924;2022-07-17T06:29:39;4.57;;;4.27;;
1991;SDS011;997;48.448;8.924;2022-07-17T06:32:05;4.70;;;4.30;;
1991;SDS011;997;48.448;8.924;2022-07-17T06:34:31;4.63;;;4.33;;
1991;SDS011;997;48.448;8.924;2022-07-17T06:36:57;5.60;;;5.10;;
1991;SDS011;997;48.448;8.924;2022-07-17T06:39:24;4.00;;;3.53;;
1991;SDS011;997;48.448;8.924;2022-07-17T06:41:50;4.50;;;4.20;;
1991;SDS011;997;48.448;8.924;2022-07-17T06:44:17;5.30;;;4.80;;
1991;SDS011;997;48.448;8.924;2022-07-17T06:46:43;5.10;;;4.70;;
1991;SDS011;997;48.448;8.924;2022-07-17T06:49:08;4.63;;;4.23;;
1991;SDS011;997;48.448;8.924;2022-07-17T06:51:35;4.80;;;4.40;;
1991;SDS011;997;48.448;8.924;2022-07-17T06:54:01;4.90;;;4.50;;
1991;SDS011;997;48.448;8.924;2022-07-17T06:56:27;4.87;;;4.47;;
1991;SDS011;997;48.448;8.924;2022-07-17T06:58:52;4.90;;;4.50;;
1991;SDS011;997;48.448;8.924;2022-07-17T07:01:18;5.50;;;4.27;;
1991;SDS011;997;48.448;8.924;2022-07-17T07:03:44;5.27;;;4.87;;
1991;SDS011;997;48.448;8.924;2022-07-17T07:06:09;5.20;;;4.70;;
1991;SDS011;997;48.448;8.924;2022-07-17T07:08:36;5.43;;;4.37;;
1991;SDS011;997;48.448;8.924;2022-07-17T07:11:02;18.03;;;4.83;;
1991;SDS011;997;48.448;8.924;2022-07-17T07:13:28;4.90;;;4.43;;
1991;SDS011;997;48.448;8.924;2022-07-17T07:15:54;4.17;;;3.73;;
1991;SDS011;997;48.448;8.924;2022-07-17T07:18:20;4.90;;;4.53;;
1991;SDS011;997;48.448;8.924;2022-07-17T07:20:46;4.63;;;4.17;;
1991;SDS011;997;48.448;8.924;2022-07-17T07:23:13;5.87;;;4.67;;
1991;SDS011;997;48.448;8.924;2022-07-17T07:25:38;4.17;;;3.87;;
1991;SDS011;997;48.448;8.924;2022-07-17T07:28:04;6.50;;;4.13;;
1991;SDS011;997;48.448;8.924;2022-07-17T07:30:30;4.60;;;4.30;;
1991;SDS011;997;48.448;8.924;2022-07-17T07:32:56;4.50;;;4.10;;
1991;SDS011;997;48.448;8.924;2022-07-17T07:35:23;3.97;;;3.67;;
1991;SDS011;997;48.448;8.924;2022-07-17T07:37:49;5.70;;;3.90;;
1991;SDS011;997;48.448;8.924;2022-07-17T07:40:15;3.90;;;3.60;;
1991;SDS011;997;48.448;8.924;2022-07-17T07:42:41;4.20;;;3.80;;
1991;SDS011;997;48.448;8.924;2022-07-17T07:45:07;4.97;;;4.57;;
1991;SDS011;997;48.448;8.924;2022-07-17T07:47:39;4.20;;;3.90;;
1991;SDS011;997;48.448;8.924;2022-07-17T07:50:09;4.20;;;3.80;;
1991;SDS011;997;48.448;8.924;2022-07-17T07:52:36;4.53;;;3.73;;
1991;SDS011;997;48.448;8.924;2022-07-17T07:55:03;4.67;;;3.13;;
1991;SDS011;997;48.448;8.924;2022-07-17T07:57:29;3.50;;;3.30;;
1991;SDS011;997;48.448;8.924;2022-07-17T07:59:55;5.43;;;3.53;;
1991;SDS011;997;48.448;8.924;2022-07-17T08:02:21;9.43;;;3.20;;
1991;SDS011;997;48.448;8.924;2022-07-17T08:04:47;3.77;;;3.57;;
1991;SDS011;997;48.448;8.924;2022-07-17T08:07:13;3.53;;;3.23;;
1991;SDS011;997;48.448;8.924;2022-07-17T08:09:39;3.07;;;2.80;;
1991;SDS011;997;48.448;8.924;2022-07-17T08:12:05;3.77;;;3.37;;
1991;SDS011;997;48.448;8.924;2022-07-17T08:14:31;3.33;;;3.03;;
1991;SDS011;997;48.448;8.924;2022-07-17T08:16:58;4.87;;;2.73;;
1991;SDS011;997;48.448;8.924;2022-07-17T08:19:24;3.53;;;3.33;;
1991;SDS011;997;48.448;8.924;2022-07-17T08:21:49;3.20;;;3.00;;
1991;SDS011;997;48.448;8.924;2022-07-17T08:24:15;3.13;;;2.83;;
1991;SDS011;997;48.448;8.924;2022-07-17T08:26:42;3.10;;;2.80;;
1991;SDS011;997;48.448;8.924;2022-07-17T08:29:08;3.13;;;2.93;;
1991;SDS011;997;48.448;8.924;2022-07-17T08:31:34;5.00;;;3.73;;
1991;SDS011;997;48.448;8.924;2022-07-17T08:34:00;3.77;;;2.90;;
1991;SDS011;997;48.448;8.924;2022-07-17T08:36:26;3.90;;;3.60;;
1991;SDS011;997;48.448;8.924;2022-07-17T08:38:52;3.33;;;2.83;;
1991;SDS011;997;48.448;8.924;2022-07-17T08:41:18;3.60;;;2.70;;
1991;SDS011;997;48.448;8.924;2022-07-17T08:43:47;5.63;;;2.93;;
1991;SDS011;997;48.448;8.924;2022-07-17T08:46:14;3.53;;;3.23;;
1991;SDS011;997;48.448;8.924;2022-07-17T08:48:41;7.13;;;3.47;;
1991;SDS011;997;48.448;8.924;2022-07-17T08:51:10;3.10;;;2.90;;
1991;SDS011;997;48.448;8.924;2022-07-17T08:53:36;3.20;;;2.93;;
1991;SDS011;997;48.448;8.924;2022-07-17T08:56:03;4.67;;;3.53;;
1991;SDS011;997;48.448;8.924;2022-07-17T08:58:29;3.30;;;3.10;;
1991;SDS011;997;48.448;8.924;2022-07-17T09:03:24;3.10;;;2.80;;
1991;SDS011;997;48.448;8.924;2022-07-17T09:05:51;5.77;;;3.20;;
1991;SDS011;997;48.448;8.924;2022-07-17T09:08:18;2.70;;;2.60;;
1991;SDS011;997;48.448;8.924;2022-07-17T09:10:47;2.57;;;2.40;;
1991;SDS011;997;48.448;8.924;2022-07-17T09:13:15;3.40;;;3.10;;
1991;SDS011;997;48.448;8.924;2022-07-17T09:15:42;3.37;;;3.07;;
1991;SDS011;997;48.448;8.924;2022-07-17T09:18:07;3.70;;;2.50;;
1991;SDS011;997;48.448;8.924;2022-07-17T09:20:33;2.40;;;2.20;;
1991;SDS011;997;48.448;8.924;2022-07-17T09:23:00;2.80;;;2.60;;
1991;SDS011;997;48.448;8.924;2022-07-17T09:25:38;2.90;;;2.70;;
1991;SDS011;997;48.448;8.924;2022-07-17T09:28:07;3.47;;;3.17;;
1991;SDS011;997;48.448;8.924;2022-07-17T09:30:35;3.93;;;2.93;;
1991;SDS011;997;48.448;8.924;2022-07-17T09:33:06;2.97;;;2.77;;
1991;SDS011;997;48.448;8.924;2022-07-17T09:36:10;3.10;;;2.90;;
1991;SDS011;997;48.448;8.924;2022-07-17T09:38:35;2.87;;;2.67;;
1991;SDS011;997;48.448;8.924;2022-07-17T09:41:10;2.57;;;2.37;;
1991;SDS011;997;48.448;8.924;2022-07-17T09:46:20;2.30;;;2.20;;
1991;SDS011;997;48.448;8.924;2022-07-17T09:48:49;3.67;;;3.43;;
1991;SDS011;997;48.448;8.924;2022-07-17T09:53:50;3.03;;;2.30;;
1991;SDS011;997;48.448;8.924;2022-07-17T09:56:18;3.30;;;2.67;;
1991;SDS011;997;48.448;8.924;2022-07-17T10:01:39;3.07;;;2.87;;
1991;SDS011;997;48.448;8.924;2022-07-17T10:04:06;1.97;;;1.87;;
1991;SDS011;997;48.448;8.924;2022-07-17T10:06:35;2.67;;;2.47;;
1991;SDS011;997;48.448;8.924;2022-07-17T10:09:02;2.63;;;2.43;;
1991;SDS011;997;48.448;8.924;2022-07-17T10:11:31;4.20;;;3.90;;
1991;SDS011;997;48.448;8.924;2022-07-17T10:14:04;2.77;;;2.53;;
1991;SDS011;997;48.448;8.924;2022-07-17T10:16:33;2.07;;;1.87;;
1991;SDS011;997;48.448;8.924;2022-07-17T10:19:17;2.17;;;2.07;;
1991;SDS011;997;48.448;8.924;2022-07-17T10:21:55;2.90;;;2.60;;
1991;SDS011;997;48.448;8.924;2022-07-17T10:24:26;2.60;;;2.27;;
1991;SDS011;997;48.448;8.924;2022-07-17T10:26:54;3.53;;;2.50;;
1991;SDS011;997;48.448;8.924;2022-07-17T10:31:58;3.17;;;2.40;;
1991;SDS011;997;48.448;8.924;2022-07-17T10:37:21;2.20;;;2.10;;
1991;SDS011;997;48.448;8.924;2022-07-17T10:39:52;2.60;;;2.40;;
1991;SDS011;997;48.448;8.924;2022-07-17T10:45:29;2.63;;;2.43;;
1991;SDS011;997;48.448;8.924;2022-07-17T10:48:03;2.47;;;2.30;;
1991;SDS011;997;48.448;8.924;2022-07-17T10:50:36;1.80;;;1.70;;
1991;SDS011;997;48.448;8.924;2022-07-17T10:53:08;2.83;;;2.40;;
1991;SDS011;997;48.448;8.924;2022-07-17T10:55:38;3.50;;;3.20;;
1991;SDS011;997;48.448;8.924;2022-07-17T10:58:20;2.47;;;2.27;;
1991;SDS011;997;48.448;8.924;2022-07-17T11:01:16;2.63;;;2.10;;
1991;SDS011;997;48.448;8.924;2022-07-17T11:06:20;2.53;;;2.37;;
1991;SDS011;997;48.448;8.924;2022-07-17T11:08:54;3.30;;;2.17;;
1991;SDS011;997;48.448;8.924;2022-07-17T11:11:21;1.63;;;1.53;;
1991;SDS011;997;48.448;8.924;2022-07-17T11:16:42;2.30;;;2.10;;
1991;SDS011;997;48.448;8.924;2022-07-17T11:19:36;2.13;;;1.93;;
1991;SDS011;997;48.448;8.924;2022-07-17T11:22:04;1.63;;;1.53;;
1991;SDS011;997;48.448;8.924;2022-07-17T11:24:39;2.20;;;2.00;;
1991;SDS011;997;48.448;8.924;2022-07-17T11:27:10;3.13;;;2.00;;
1991;SDS011;997;48.448;8.924;2022-07-17T11:29:39;2.37;;;2.17;;
1991;SDS011;997;48.448;8.924;2022-07-17T11:32:06;2.23;;;1.93;;
1991;SDS011;997;48.448;8.924;2022-07-17T11:34:32;2.03;;;1.83;;
1991;SDS011;997;48.448;8.924;2022-07-17T11:37:03;1.80;;;1.70;;
1991;SDS011;997;48.448;8.924;2022-07-17T11:42:18;2.33;;;1.90;;
1991;SDS011;997;48.448;8.924;2022-07-17T11:44:46;2.27;;;2.17;;
1991;SDS011;997;48.448;8.924;2022-07-17T11:47:26;2.07;;;1.67;;
1991;SDS011;997;48.448;8.924;2022-07-17T11:50:06;2.00;;;1.50;;
1991;SDS011;997;48.448;8.924;2022-07-17T11:52:39;1.87;;;1.77;;
1991;SDS011;997;48.448;8.924;2022-07-17T11:55:07;1.57;;;1.40;;
1991;SDS011;997;48.448;8.924;2022-07-17T11:57:41;1.80;;;1.70;;
1991;SDS011;997;48.448;8.924;2022-07-17T12:00:09;6.00;;;5.00;;
1991;SDS011;997;48.448;8.924;2022-07-17T12:03:38;2.13;;;2.00;;
1991;SDS011;997;48.448;8.924;2022-07-17T12:06:04;1.90;;;1.80;;
1991;SDS011;997;48.448;8.924;2022-07-17T12:08:30;1.40;;;1.30;;
1991;SDS011;997;48.448;8.924;2022-07-17T12:11:07;1.70;;;1.60;;
1991;SDS011;997;48.448;8.924;2022-07-17T12:13:42;1.73;;;1.63;;
1991;SDS011;997;48.448;8.924;2022-07-17T12:16:28;2.97;;;2.73;;
1991;SDS011;997;48.448;8.924;2022-07-17T12:21:31;1.50;;;1.40;;
1991;SDS011;997;48.448;8.924;2022-07-17T12:24:01;1.70;;;1.60;;
1991;SDS011;997;48.448;8.924;2022-07-17T12:26:29;2.10;;;1.87;;
1991;SDS011;997;48.448;8.924;2022-07-17T12:28:57;1.90;;;1.63;;
1991;SDS011;997;48.448;8.924;2022-07-17T12:31:24;1.73;;;1.63;;
1991;SDS011;997;48.448;8.924;2022-07-17T12:33:51;1.83;;;1.73;;
1991;SDS011;997;48.448;8.924;2022-07-17T12:36:19;2.17;;;2.07;;
1991;SDS011;997;48.448;8.924;2022-07-17T12:38:47;1.47;;;1.37;;
1991;SDS011;997;48.448;8.924;2022-07-17T12:41:14;2.90;;;1.47;;
1991;SDS011;997;48.448;8.924;2022-07-17T12:43:41;1.40;;;1.30;;
1991;SDS011;997;48.448;8.924;2022-07-17T12:46:07;1.77;;;1.67;;
1991;SDS011;997;48.448;8.924;2022-07-17T12:48:33;2.47;;;1.50;;
1991;SDS011;997;48.448;8.924;2022-07-17T12:51:00;2.43;;;2.20;;
1991;SDS011;997;48.448;8.924;2022-07-17T12:53:26;1.50;;;1.40;;
1991;SDS011;997;48.448;8.924;2022-07-17T12:55:52;1.87;;;1.77;;
1991;SDS011;997;48.448;8.924;2022-07-17T12:58:17;3.00;;;1.60;;
1991;SDS011;997;48.448;8.924;2022-07-17T13:00:43;2.07;;;1.70;;
1991;SDS011;997;48.448;8.924;2022-07-17T13:03:10;2.40;;;1.70;;
1991;SDS011;997;48.448;8.924;2022-07-17T13:05:37;1.63;;;1.50;;
1991;SDS011;997;48.448;8.924;2022-07-17T13:08:03;1.70;;;1.60;;
1991;SDS011;997;48.448;8.924;2022-07-17T13:10:29;3.10;;;2.43;;
1991;SDS011;997;48.448;8.924;2022-07-17T13:12:58;2.40;;;2.20;;
1991;SDS011;997;48.448;8.924;2022-07-17T13:15:24;2.20;;;1.70;;
1991;SDS011;997;48.448;8.924;2022-07-17T13:17:50;1.80;;;1.70;;
1991;SDS011;997;48.448;8.924;2022-07-17T13:20:16;2.33;;;2.13;;
1991;SDS011;997;48.448;8.924;2022-07-17T13:22:41;1.57;;;1.47;;
1991;SDS011;997;48.448;8.924;2022-07-17T13:25:08;1.20;;;1.10;;
1991;SDS011;997;48.448;8.924;2022-07-17T13:27:34;1.73;;;1.63;;
1991;SDS011;997;48.448;8.924;2022-07-17T13:30:00;2.20;;;1.50;;
1991;SDS011;997;48.448;8.924;2022-07-17T13:32:25;2.10;;;1.80;;
1991;SDS011;997;48.448;8.924;2022-07-17T13:34:52;2.90;;;2.00;;
1991;SDS011;997;48.448;8.924;2022-07-17T13:37:18;2.20;;;1.83;;
1991;SDS011;997;48.448;8.924;2022-07-17T13:39:44;1.70;;;1.60;;
1991;SDS011;997;48.448;8.924;2022-07-17T13:42:09;4.20;;;1.63;;
1991;SDS011;997;48.448;8.924;2022-07-17T13:44:36;1.67;;;1.57;;
1991;SDS011;997;48.448;8.924;2022-07-17T13:47:02;1.67;;;1.57;;
1991;SDS011;997;48.448;8.924;2022-07-17T13:49:28;1.70;;;1.60;;
1991;SDS011;997;48.448;8.924;2022-07-17T13:51:54;1.40;;;1.30;;
1991;SDS011;997;48.448;8.924;2022-07-17T13:54:20;1.57;;;1.33;;
1991;SDS011;997;48.448;8.924;2022-07-17T13:56:47;1.73;;;1.40;;
1991;SDS011;997;48.448;8.924;2022-07-17T13:59:13;1.70;;;1.60;;
1991;SDS011;997;48.448;8.924;2022-07-17T14:01:39;1.67;;;1.57;;
1991;SDS011;997;48.448;8.924;2022-07-17T14:04:05;1.40;;;1.30;;
1991;SDS011;997;48.448;8.924;2022-07-17T14:06:31;1.90;;;1.80;;
1991;SDS011;997;48.448;8.924;2022-07-17T14:08:57;1.40;;;1.30;;
1991;SDS011;997;48.448;8.924;2022-07-17T14:11:23;1.70;;;1.60;;
1991;SDS011;997;48.448;8.924;2022-07-17T14:13:48;1.57;;;1.47;;
1991;SDS011;997;48.448;8.924;2022-07-17T14:16:16;1.90;;;1.80;;
1991;SDS011;997;48.448;8.924;2022-07-17T14:18:42;2.00;;;1.83;;
1991;SDS011;997;48.448;8.924;2022-07-17T14:21:29;1.87;;;1.70;;
1991;SDS011;997;48.448;8.924;2022-07-17T14:23:57;2.33;;;1.50;;
1991;SDS011;997;48.448;8.924;2022-07-17T14:26:25;1.90;;;1.80;;
1991;SDS011;997;48.448;8.924;2022-07-17T14:28:51;2.10;;;2.00;;
1991;SDS011;997;48.448;8.924;2022-07-17T14:31:17;1.90;;;1.80;;
1991;SDS011;997;48.448;8.924;2022-07-17T14:33:44;1.67;;;1.57;;
1991;SDS011;997;48.448;8.924;2022-07-17T14:36:11;1.73;;;1.63;;
1991;SDS011;997;48.448;8.924;2022-07-17T14:38:38;2.50;;;1.43;;
1991;SDS011;997;48.448;8.924;2022-07-17T14:41:04;2.23;;;1.90;;
1991;SDS011;997;48.448;8.924;2022-07-17T14:43:31;1.67;;;1.57;;
1991;SDS011;997;48.448;8.924;2022-07-17T14:45:57;1.77;;;1.67;;
1991;SDS011;997;48.448;8.924;2022-07-17T14:48:24;2.00;;;1.90;;
1991;SDS011;997;48.448;8.924;2022-07-17T14:50:50;2.13;;;2.03;;
1991;SDS011;997;48.448;8.924;2022-07-17T14:53:16;1.77;;;1.67;;
1991;SDS011;997;48.448;8.924;2022-07-17T14:55:41;1.70;;;1.60;;
1991;SDS011;997;48.448;8.924;2022-07-17T14:58:07;2.00;;;1.80;;
1991;SDS011;997;48.448;8.924;2022-07-17T15:00:34;1.60;;;1.50;;
1991;SDS011;997;48.448;8.924;2022-07-17T15:02:59;2.53;;;2.03;;
1991;SDS011;997;48.448;8.924;2022-07-17T15:05:25;1.90;;;1.80;;
1991;SDS011;997;48.448;8.924;2022-07-17T15:07:51;2.60;;;2.20;;
1991;SDS011;997;48.448;8.924;2022-07-17T15:10:17;3.10;;;2.50;;
1991;SDS011;997;48.448;8.924;2022-07-17T15:12:42;3.33;;;2.03;;
1991;SDS011;997;48.448;8.924;2022-07-17T15:15:08;2.00;;;1.90;;
1991;SDS011;997;48.448;8.924;2022-07-17T15:17:34;2.57;;;2.37;;
1991;SDS011;997;48.448;8.924;2022-07-17T15:20:00;2.37;;;2.17;;
1991;SDS011;997;48.448;8.924;2022-07-17T15:22:28;1.80;;;1.70;;
1991;SDS011;997;48.448;8.924;2022-07-17T15:24:54;2.10;;;2.00;;
1991;SDS011;997;48.448;8.924;2022-07-17T15:27:20;1.80;;;1.70;;
1991;SDS011;997;48.448;8.924;2022-07-17T15:29:47;1.57;;;1.47;;
1991;SDS011;997;48.448;8.924;2022-07-17T15:32:12;3.13;;;1.85;;
1991;SDS011;997;48.448;8.924;2022-07-17T15:34:39;2.05;;;1.70;;
1991;SDS011;997;48.448;8.924;2022-07-17T15:37:04;1.83;;;1.73;;
1991;SDS011;997;48.448;8.924;2022-07-17T15:39:30;1.90;;;1.80;;
1991;SDS011;997;48.448;8.924;2022-07-17T15:41:57;2.22;;;2.03;;
1991;SDS011;997;48.448;8.924;2022-07-17T15:44:22;1.88;;;1.77;;
1991;SDS011;997;48.448;8.924;2022-07-17T15:46:48;2.30;;;1.95;;
1991;SDS011;997;48.448;8.924;2022-07-17T15:49:14;6.03;;;2.35;;
1991;SDS011;997;48.448;8.924;2022-07-17T15:51:41;2.22;;;2.03;;
1991;SDS011;997;48.448;8.924;2022-07-17T15:54:07;1.50;;;1.40;;
1991;SDS011;997;48.448;8.924;2022-07-17T15:56:34;1.92;;;1.83;;
1991;SDS011;997;48.448;8.924;2022-07-17T15:59:00;1.85;;;1.75;;
1991;SDS011;997;48.448;8.924;2022-07-17T16:01:26;1.80;;;1.70;;
1991;SDS011;997;48.448;8.924;2022-07-17T16:03:52;4.97;;;2.30;;
1991;SDS011;997;48.448;8.924;2022-07-17T16:06:19;1.75;;;1.65;;
1991;SDS011;997;48.448;8.924;2022-07-17T16:08:45;1.80;;;1.70;;
1991;SDS011;997;48.448;8.924;2022-07-17T16:11:11;2.00;;;1.90;;
1991;SDS011;997;48.448;8.924;2022-07-17T16:13:37;2.10;;;1.95;;
1991;SDS011;997;48.448;8.924;2022-07-17T16:16:03;1.90;;;1.80;;
1991;SDS011;997;48.448;8.924;2022-07-17T16:18:29;2.20;;;1.80;;
1991;SDS011;997;48.448;8.924;2022-07-17T16:20:55;3.28;;;1.70;;
1991;SDS011;997;48.448;8.924;2022-07-17T16:23:21;2.08;;;1.98;;
1991;SDS011;997;48.448;8.924;2022-07-17T16:25:48;1.73;;;1.63;;
1991;SDS011;997;48.448;8.924;2022-07-17T16:28:14;2.25;;;2.05;;
1991;SDS011;997;48.448;8.924;2022-07-17T16:30:40;2.72;;;1.88;;
1991;SDS011;997;48.448;8.924;2022-07-17T16:33:07;2.45;;;1.85;;
1991;SDS011;997;48.448;8.924;2022-07-17T16:35:33;1.63;;;1.52;;
1991;SDS011;997;48.448;8.924;2022-07-17T16:37:59;1.80;;;1.70;;
1991;SDS011;997;48.448;8.924;2022-07-17T16:40:25;1.92;;;1.83;;
1991;SDS011;997;48.448;8.924;2022-07-17T16:42:50;2.00;;;1.90;;
1991;SDS011;997;48.448;8.924;2022-07-17T16:45:16;1.98;;;1.88;;
1991;SDS011;997;48.448;8.924;2022-07-17T16:47:42;3.05;;;2.00;;
1991;SDS011;997;48.448;8.924;2022-07-17T16:50:08;1.88;;;1.77;;
1991;SDS011;997;48.448;8.924;2022-07-17T16:52:34;2.53;;;2.33;;
1991;SDS011;997;48.448;8.924;2022-07-17T16:55:00;2.20;;;2.10;;
1991;SDS011;997;48.448;8.924;2022-07-17T16:57:27;2.08;;;1.98;;
1991;SDS011;997;48.448;8.924;2022-07-17T16:59:53;2.75;;;2.65;;
1991;SDS011;997;48.448;8.924;2022-07-17T17:02:18;2.63;;;2.33;;
1991;SDS011;997;48.448;8.924;2022-07-17T17:04:44;2.40;;;2.20;;
1991;SDS011;997;48.448;8.924;2022-07-17T17:07:10;2.05;;;1.95;;
1991;SDS011;997;48.448;8.924;2022-07-17T17:09:37;2.10;;;2.00;;
1991;SDS011;997;48.448;8.924;2022-07-17T17:12:03;3.05;;;1.70;;
1991;SDS011;997;48.448;8.924;2022-07-17T17:14:30;2.20;;;2.00;;
1991;SDS011;997;48.448;8.924;2022-07-17T17:16:56;2.60;;;2.40;;
1991;SDS011;997;48.448;8.924;2022-07-17T17:19:22;2.40;;;2.20;;
1991;SDS011;997;48.448;8.924;2022-07-17T17:21:48;2.40;;;2.20;;
1991;SDS011;997;48.448;8.924;2022-07-17T17:24:14;2.22;;;2.13;;
1991;SDS011;997;48.448;8.924;2022-07-17T17:26:40;1.80;;;1.65;;
1991;SDS011;997;48.448;8.924;2022-07-17T17:29:06;2.30;;;2.20;;
1991;SDS011;997;48.448;8.924;2022-07-17T17:31:32;1.90;;;1.80;;
1991;SDS011;997;48.448;8.924;2022-07-17T17:33:58;2.28;;;2.15;;
1991;SDS011;997;48.448;8.924;2022-07-17T17:36:24;1.85;;;1.75;;
1991;SDS011;997;48.448;8.924;2022-07-17T17:38:51;2.05;;;1.90;;
1991;SDS011;997;48.448;8.924;2022-07-17T17:41:17;2.30;;;2.10;;
1991;SDS011;997;48.448;8.924;2022-07-17T17:43:43;1.73;;;1.63;;
1991;SDS011;997;48.448;8.924;2022-07-17T17:46:09;2.20;;;1.90;;
1991;SDS011;997;48.448;8.924;2022-07-17T17:48:34;1.92;;;1.83;;
1991;SDS011;997;48.448;8.924;2022-07-17T17:51:00;2.10;;;1.90;;
1991;SDS011;997;48.448;8.924;2022-07-17T17:53:27;4.40;;;2.30;;
1991;SDS011;997;48.448;8.924;2022-07-17T17:55:53;2.20;;;2.10;;
1991;SDS011;997;48.448;8.924;2022-07-17T17:58:19;2.13;;;2.00;;
1991;SDS011;997;48.448;8.924;2022-07-17T18:00:45;2.33;;;2.13;;
1991;SDS011;997;48.448;8.924;2022-07-17T18:03:11;3.00;;;2.60;;
1991;SDS011;997;48.448;8.924;2022-07-17T18:05:38;2.43;;;2.33;;
1991;SDS011;997;48.448;8.924;2022-07-17T18:08:04;2.20;;;2.00;;
1991;SDS011;997;48.448;8.924;2022-07-17T18:10:30;2.07;;;1.87;;
1991;SDS011;997;48.448;8.924;2022-07-17T18:12:56;2.13;;;1.93;;
1991;SDS011;997;48.448;8.924;2022-07-17T18:15:22;2.60;;;2.33;;
1991;SDS011;997;48.448;8.924;2022-07-17T18:17:48;2.87;;;2.40;;
1991;SDS011;997;48.448;8.924;2022-07-17T18:20:15;3.40;;;2.53;;
1991;SDS011;997;48.448;8.924;2022-07-17T18:22:42;3.17;;;2.60;;
1991;SDS011;997;48.448;8.924;2022-07-17T18:25:07;2.67;;;2.47;;
1991;SDS011;997;48.448;8.924;2022-07-17T18:27:34;2.60;;;2.40;;
1991;SDS011;997;48.448;8.924;2022-07-17T18:30:00;2.20;;;2.00;;
1991;SDS011;997;48.448;8.924;2022-07-17T18:32:27;2.97;;;2.00;;
1991;SDS011;997;48.448;8.924;2022-07-17T18:34:54;2.10;;;2.00;;
1991;SDS011;997;48.448;8.924;2022-07-17T18:37:20;8.60;;;2.23;;
1991;SDS011;997;48.448;8.924;2022-07-17T18:39:46;3.10;;;2.43;;
1991;SDS011;997;48.448;8.924;2022-07-17T18:42:13;2.50;;;2.30;;
1991;SDS011;997;48.448;8.924;2022-07-17T18:44:39;2.43;;;2.23;;
1991;SDS011;997;48.448;8.924;2022-07-17T18:47:04;2.47;;;2.27;;
1991;SDS011;997;48.448;8.924;2022-07-17T18:49:31;2.50;;;2.00;;
1991;SDS011;997;48.448;8.924;2022-07-17T18:51:57;2.43;;;2.23;;
1991;SDS011;997;48.448;8.924;2022-07-17T18:54:23;2.20;;;2.10;;
1991;SDS011;997;48.448;8.924;2022-07-17T18:56:49;3.57;;;2.97;;
1991;SDS011;997;48.448;8.924;2022-07-17T18:59:15;3.90;;;2.30;;
1991;SDS011;997;48.448;8.924;2022-07-17T19:01:41;2.67;;;2.50;;